createdAt,value
2018-03-02T00:02:02.595Z,74.40
2018-03-02T00:04:30.434Z,73.12
2018-03-02T00:06:58.106Z,72.93
2018-03-02T00:09:25.665Z,68.25
2018-03-02T00:11:53.191Z,71.87
2018-03-02T00:14:20.746Z,65.50
2018-03-02T00:16:51.302Z,90.97
2018-03-02T00:19:19.152Z,77.25
2018-03-02T00:21:46.675Z,67.25
2018-03-02T00:24:14.200Z,63.35
2018-03-02T00:26:41.746Z,56.25
2018-03-02T00:29:09.274Z,65.22
2018-03-02T00:31:36.984Z,67.45
2018-03-02T00:34:04.527Z,61.75
2018-03-02T00:36:32.043Z,65.60
2018-03-02T00:38:59.593Z,74.90
2018-03-02T00:41:27.113Z,69.97
2018-03-02T00:43:54.841Z,75.85
2018-03-02T00:46:22.359Z,66.20
2018-03-02T00:48:49.882Z,73.95
2018-03-02T00:51:17.425Z,78.30
2018-03-02T00:53:44.947Z,64.93
2018-03-02T00:56:12.514Z,54.88
2018-03-02T00:58:40.031Z,53.33
2018-03-02T01:01:07.554Z,65.57
2018-03-02T01:03:35.108Z,60.85
2018-03-02T01:06:02.626Z,83.05
2018-03-02T01:08:30.610Z,59.95
2018-03-02T01:10:58.129Z,66.22
2018-03-02T01:13:25.826Z,65.25
2018-03-02T01:15:53.374Z,53.17
2018-03-02T01:18:20.891Z,71.50
2018-03-02T01:20:48.747Z,65.97
2018-03-02T01:23:16.258Z,68.35
2018-03-02T01:25:43.773Z,65.72
2018-03-02T01:28:11.321Z,69.25
2018-03-02T01:30:38.849Z,73.07
2018-03-02T01:33:06.754Z,66.15
2018-03-02T01:35:34.275Z,60.60
2018-03-02T01:38:01.803Z,71.68
2018-03-02T01:40:29.362Z,77.28
2018-03-02T01:42:56.927Z,65.28
2018-03-02T01:45:24.653Z,65.72
2018-03-02T01:47:52.169Z,70.10
2018-03-02T01:50:19.708Z,66.65
2018-03-02T01:52:47.257Z,79.62
2018-03-02T01:55:14.826Z,70.28
2018-03-02T01:57:42.463Z,62.15
2018-03-02T02:00:09.976Z,46.97
2018-03-02T02:02:37.522Z,59.47
2018-03-02T02:05:05.092Z,65.87
2018-03-02T02:07:32.627Z,74.05
2018-03-02T02:10:00.187Z,77.55
2018-03-02T02:12:28.039Z,63.83
2018-03-02T02:14:55.561Z,58.47
2018-03-02T02:17:23.109Z,64.37
2018-03-02T02:19:50.625Z,63.10
2018-03-02T02:22:18.489Z,55.42
2018-03-02T02:24:46.002Z,69.57
2018-03-02T02:27:13.802Z,67.25
2018-03-02T02:29:41.771Z,66.70
2018-03-02T02:32:10.154Z,71.10
2018-03-02T02:34:37.722Z,70.07
2018-03-02T02:37:05.257Z,78.37
2018-03-02T02:39:32.776Z,56.13
2018-03-02T02:42:00.333Z,65.85
2018-03-02T02:44:27.860Z,71.95
2018-03-02T02:46:55.699Z,80.82
2018-03-02T02:49:23.220Z,59.78
2018-03-02T02:51:50.740Z,76.18
2018-03-02T02:54:18.284Z,72.10
2018-03-02T02:56:45.814Z,68.70
2018-03-02T02:59:13.405Z,60.47
2018-03-02T03:01:40.926Z,55.58
2018-03-02T03:04:08.454Z,62.67
2018-03-02T03:06:36.006Z,49.15
2018-03-02T03:09:03.537Z,59.13
2018-03-02T03:11:31.097Z,68.68
2018-03-02T03:13:58.622Z,76.57
2018-03-02T03:16:26.141Z,64.55
2018-03-02T03:18:53.974Z,68.00
2018-03-02T03:21:21.747Z,69.57
2018-03-02T03:23:49.296Z,84.72
2018-03-02T03:26:16.834Z,78.62
2018-03-02T03:28:44.361Z,64.30
2018-03-02T03:31:12.128Z,70.90
2018-03-02T03:33:39.658Z,52.47
2018-03-02T03:36:07.290Z,60.97
2018-03-02T03:38:34.818Z,53.15
2018-03-02T03:41:02.345Z,63.05
2018-03-02T03:43:29.896Z,59.40
2018-03-02T03:45:57.425Z,67.35
2018-03-02T03:48:25.174Z,63.13
2018-03-02T03:50:52.828Z,72.75
2018-03-02T03:53:20.351Z,59.72
2018-03-02T03:55:47.902Z,79.87
2018-03-02T03:58:15.424Z,73.15
2018-03-02T04:00:43.173Z,71.55
2018-03-02T04:03:10.705Z,65.75
2018-03-02T04:05:38.223Z,67.32
2018-03-02T04:08:05.770Z,71.53
2018-03-02T04:10:33.285Z,69.95
2018-03-02T04:13:01.193Z,90.00
2018-03-02T04:15:28.723Z,65.62
2018-03-02T04:17:56.254Z,86.20
2018-03-02T04:20:23.797Z,60.70
2018-03-02T04:22:51.319Z,63.35
2018-03-02T04:25:18.882Z,65.15
2018-03-02T04:27:46.397Z,64.75
2018-03-02T04:30:13.917Z,70.07
2018-03-02T04:32:41.474Z,79.87
2018-03-02T04:35:09.063Z,58.05
2018-03-02T04:37:36.632Z,65.78
2018-03-02T04:40:04.150Z,79.25
2018-03-02T04:42:31.670Z,68.30
2018-03-02T04:44:59.222Z,66.82
2018-03-02T04:47:26.746Z,76.95
2018-03-02T04:49:54.458Z,64.80
2018-03-02T04:52:21.978Z,61.60
2018-03-02T04:54:49.493Z,78.90
2018-03-02T04:57:17.050Z,61.05
2018-03-02T04:59:44.570Z,69.50
2018-03-02T05:02:12.249Z,79.97
2018-03-02T05:04:39.767Z,73.62
2018-03-02T05:07:07.339Z,83.15
2018-03-02T05:09:34.892Z,77.03
2018-03-02T05:12:02.407Z,74.43
2018-03-02T05:14:30.150Z,89.35
2018-03-02T05:16:57.664Z,72.10
2018-03-02T05:19:25.186Z,61.55
2018-03-02T05:21:52.849Z,81.28
2018-03-02T05:24:20.377Z,73.28
2018-03-02T05:26:47.938Z,71.60
2018-03-02T05:29:15.479Z,56.95
2018-03-02T05:31:43.002Z,69.45
2018-03-02T05:34:10.548Z,61.22
2018-03-02T05:36:38.307Z,80.18
2018-03-02T05:39:06.153Z,86.12
2018-03-02T05:41:33.671Z,70.50
2018-03-02T05:44:01.209Z,75.20
2018-03-02T05:46:28.762Z,63.83
2018-03-02T05:48:56.287Z,42.10
2018-03-02T05:51:23.991Z,56.67
2018-03-02T05:53:51.505Z,66.53
2018-03-02T05:56:19.025Z,71.65
2018-03-02T05:58:46.582Z,72.93
2018-03-02T06:01:14.102Z,71.03
2018-03-02T06:03:41.677Z,57.20
2018-03-02T06:06:09.201Z,79.97
2018-03-02T06:08:36.770Z,86.97
2018-03-02T06:11:04.322Z,74.47
2018-03-02T06:13:31.839Z,87.95
2018-03-02T06:15:59.650Z,75.07
2018-03-02T06:18:27.181Z,84.53
2018-03-02T06:20:54.703Z,86.45
2018-03-02T06:23:22.261Z,82.68
2018-03-02T06:25:49.790Z,68.65
2018-03-02T06:28:17.366Z,81.87
2018-03-02T06:30:44.881Z,84.22
2018-03-02T06:33:12.406Z,104.93
2018-03-02T06:35:39.954Z,85.03
2018-03-02T06:38:07.474Z,72.28
2018-03-02T06:40:35.036Z,69.78
2018-03-02T06:43:02.554Z,78.10
2018-03-02T06:45:30.131Z,77.82
2018-03-02T06:47:57.694Z,81.75
2018-03-02T06:50:25.214Z,85.50
2018-03-02T06:52:52.992Z,99.30
2018-03-02T06:55:20.510Z,65.20
2018-03-02T06:57:48.030Z,67.60
2018-03-02T07:00:15.593Z,63.67
2018-03-02T07:02:43.109Z,78.62
2018-03-02T07:05:11.030Z,76.70
2018-03-02T07:07:38.552Z,50.83
2018-03-02T07:10:06.072Z,57.05
2018-03-02T07:12:33.629Z,91.80
2018-03-02T07:15:01.146Z,80.75
2018-03-02T07:17:29.034Z,81.75
2018-03-02T07:19:56.553Z,78.03
2018-03-02T07:22:24.152Z,62.97
2018-03-02T07:24:51.696Z,80.00
2018-03-02T07:27:19.219Z,74.68
2018-03-02T07:29:46.933Z,49.65
2018-03-02T07:32:14.456Z,77.12
2018-03-02T07:34:41.990Z,60.90
2018-03-02T07:37:09.530Z,95.57
2018-03-02T07:39:37.050Z,66.62
2018-03-02T07:42:04.834Z,46.42
2018-03-02T07:44:32.353Z,72.90
2018-03-02T07:46:59.870Z,58.10
2018-03-02T07:49:27.742Z,59.22
2018-03-02T07:51:55.264Z,64.03
2018-03-02T07:54:23.133Z,57.65
2018-03-02T07:56:50.925Z,65.97
2018-03-02T07:59:18.447Z,80.80
2018-03-02T08:01:45.998Z,56.50
2018-03-02T08:04:13.519Z,70.93
2018-03-02T08:06:41.346Z,76.03
2018-03-02T08:09:08.897Z,61.13
2018-03-02T08:11:36.410Z,77.05
2018-03-02T08:14:03.965Z,70.85
2018-03-02T08:16:31.490Z,82.97
2018-03-02T08:18:59.265Z,68.40
2018-03-02T08:21:26.794Z,73.60
2018-03-02T08:23:54.305Z,58.22
2018-03-02T08:26:21.890Z,91.03
2018-03-02T08:28:49.410Z,71.53
2018-03-02T08:31:17.093Z,82.90
2018-03-02T08:33:44.622Z,69.62
2018-03-02T08:36:12.141Z,70.32
2018-03-02T08:38:39.682Z,66.18
2018-03-02T08:41:07.203Z,82.97
2018-03-02T08:43:34.772Z,49.05
2018-03-02T08:46:02.290Z,74.35
2018-03-02T08:48:29.814Z,56.40
2018-03-02T08:50:57.366Z,84.13
2018-03-02T08:53:24.887Z,75.30
2018-03-02T08:55:52.848Z,87.05
2018-03-02T08:58:20.380Z,88.35
2018-03-02T09:00:48.113Z,62.58
2018-03-02T09:03:15.662Z,75.32
2018-03-02T09:05:43.194Z,71.45
2018-03-02T09:08:10.915Z,79.72
2018-03-02T09:10:38.434Z,65.30
2018-03-02T09:13:05.958Z,72.78
2018-03-02T09:15:33.506Z,73.68
2018-03-02T09:18:01.026Z,69.12
2018-03-02T09:20:28.736Z,70.40
2018-03-02T09:22:56.254Z,80.55
2018-03-02T09:25:23.779Z,77.15
2018-03-02T09:27:51.371Z,54.63
2018-03-02T09:30:18.906Z,80.30
2018-03-02T09:32:46.630Z,64.75
2018-03-02T09:35:14.153Z,82.60
2018-03-02T09:37:41.677Z,71.75
2018-03-02T09:40:09.214Z,71.25
2018-03-02T09:42:36.747Z,71.65
2018-03-02T09:45:04.637Z,91.28
2018-03-02T09:47:32.154Z,75.20
2018-03-02T09:49:59.738Z,88.87
2018-03-02T09:52:27.295Z,82.65
2018-03-02T09:54:54.814Z,68.22
2018-03-02T09:57:22.674Z,78.32
2018-03-02T09:59:50.206Z,89.37
2018-03-02T10:02:17.726Z,71.85
2018-03-02T10:04:45.303Z,88.43
2018-03-02T10:07:13.816Z,68.40
2018-03-02T10:09:41.518Z,75.30
2018-03-02T10:12:09.140Z,86.18
2018-03-02T10:14:36.688Z,82.25
2018-03-02T10:17:04.238Z,93.25
2018-03-02T10:19:31.824Z,69.40
2018-03-02T10:21:59.684Z,75.32
2018-03-02T10:24:27.345Z,69.68
2018-03-02T10:26:54.874Z,87.60
2018-03-02T10:29:22.670Z,72.93
2018-03-02T10:31:50.187Z,87.78
2018-03-02T10:34:17.871Z,86.65
2018-03-02T10:36:45.528Z,80.55
2018-03-02T10:39:13.047Z,79.40
2018-03-02T10:41:40.598Z,72.18
2018-03-02T10:44:08.115Z,76.82
2018-03-02T10:46:35.673Z,70.22
2018-03-02T10:49:03.193Z,74.07
2018-03-02T10:51:30.714Z,87.03
2018-03-02T10:53:58.259Z,70.25
2018-03-02T10:56:25.774Z,73.15
2018-03-02T10:58:53.565Z,70.93
2018-03-02T11:01:26.003Z,95.22
2018-03-02T11:04:01.132Z,66.72
2018-03-02T11:06:28.652Z,78.28
2018-03-02T11:08:56.167Z,94.47
2018-03-02T11:11:23.716Z,72.62
2018-03-02T11:13:51.314Z,74.72
2018-03-02T11:16:19.277Z,75.70
2018-03-02T11:18:46.794Z,94.32
2018-03-02T11:21:14.301Z,76.80
2018-03-02T11:23:41.841Z,85.62
2018-03-02T11:26:09.370Z,81.80
2018-03-02T11:28:37.174Z,83.35
2018-03-02T11:31:04.695Z,74.75
2018-03-02T11:33:32.382Z,75.28
2018-03-02T11:35:59.951Z,76.18
2018-03-02T11:38:27.469Z,76.32
2018-03-02T11:40:55.373Z,81.95
2018-03-02T11:43:22.921Z,80.43
2018-03-02T11:45:50.438Z,82.57
2018-03-02T11:48:17.980Z,82.85
2018-03-02T11:50:45.506Z,84.85
2018-03-02T11:53:13.287Z,85.45
2018-03-02T11:55:41.189Z,90.75
2018-03-02T11:58:08.723Z,90.05
2018-03-02T12:00:36.287Z,84.97
2018-03-02T12:03:03.802Z,91.43
2018-03-02T12:05:31.486Z,83.62
2018-03-02T12:07:59.008Z,89.68
2018-03-02T12:10:26.523Z,76.85
2018-03-02T12:12:54.097Z,86.53
2018-03-02T12:15:21.617Z,94.72
2018-03-02T12:17:49.175Z,86.35
2018-03-02T12:20:16.705Z,82.07
2018-03-02T12:22:44.249Z,78.45
2018-03-02T12:25:11.801Z,90.87
2018-03-02T12:27:39.334Z,76.43
2018-03-02T12:30:07.193Z,101.62
2018-03-02T12:32:34.707Z,79.87
2018-03-02T12:35:02.306Z,79.18
2018-03-02T12:37:29.942Z,84.18
2018-03-02T12:39:57.639Z,82.25
2018-03-02T12:42:25.289Z,75.97
2018-03-02T12:44:52.818Z,101.53
2018-03-02T12:47:20.392Z,81.75
2018-03-02T12:49:48.092Z,91.12
2018-03-02T12:52:16.462Z,78.90
2018-03-02T12:54:44.115Z,73.32
2018-03-02T12:57:11.642Z,79.30
2018-03-02T12:59:39.206Z,77.25
2018-03-02T13:02:06.832Z,75.35
2018-03-02T13:04:34.568Z,92.97
2018-03-02T13:07:02.280Z,112.37
2018-03-02T13:09:29.946Z,88.57
2018-03-02T13:11:57.656Z,104.25
2018-03-02T13:14:25.245Z,91.63
2018-03-02T13:16:52.866Z,77.78
2018-03-02T13:19:20.641Z,81.47
2018-03-02T13:21:48.373Z,96.05
2018-03-02T13:24:16.194Z,87.28
2018-03-02T13:29:47.733Z,88.12
2018-03-02T13:32:15.811Z,83.47
2018-03-02T13:34:55.658Z,87.55
2018-03-02T13:37:23.321Z,76.40
2018-03-02T13:40:03.168Z,74.43
2018-03-02T13:42:31.136Z,97.62
2018-03-02T13:44:58.792Z,82.80
2018-03-02T13:47:36.482Z,73.15
2018-03-02T13:50:08.222Z,86.32
2018-03-02T13:52:36.081Z,82.80
2018-03-02T13:55:03.642Z,83.57
2018-03-02T13:57:43.155Z,81.22
2018-03-02T14:00:10.848Z,86.63
2018-03-02T14:02:50.422Z,80.97
2018-03-02T14:05:18.168Z,85.70
2018-03-02T14:07:46.052Z,77.25
2018-03-02T14:10:14.119Z,79.00
2018-03-02T14:12:41.885Z,79.57
2018-03-02T14:15:09.753Z,76.05
2018-03-02T14:17:37.546Z,84.62
2018-03-02T14:20:05.489Z,82.15
2018-03-02T14:22:33.353Z,95.65
2018-03-02T14:25:01.244Z,154.45
2018-03-02T14:27:30.110Z,155.80
2018-03-02T14:29:57.874Z,262.58
2018-03-02T14:32:25.738Z,405.73
2018-03-02T14:34:53.817Z,98.70
2018-03-02T14:37:21.676Z,88.60
2018-03-02T14:39:49.667Z,95.05
2018-03-02T14:42:17.614Z,80.78
2018-03-02T14:44:45.583Z,86.82
2018-03-02T14:47:13.450Z,88.00
2018-03-02T14:49:41.264Z,77.72
2018-03-02T14:52:10.080Z,79.47
2018-03-02T14:54:37.978Z,88.18
2018-03-02T14:57:05.836Z,80.70
2018-03-02T14:59:33.708Z,87.45
2018-03-02T15:02:01.572Z,82.80
2018-03-02T15:04:30.381Z,77.70
2018-03-02T15:06:58.406Z,74.22
2018-03-02T15:09:26.501Z,71.18
2018-03-02T15:11:54.468Z,81.43
2018-03-02T15:14:22.269Z,76.47
2018-03-02T15:16:51.123Z,80.95
2018-03-02T15:19:18.990Z,87.05
2018-03-02T15:21:47.061Z,81.30
2018-03-02T15:24:14.996Z,80.40
2018-03-02T15:26:42.796Z,84.47
2018-03-02T15:29:10.867Z,75.28
2018-03-02T15:31:38.630Z,81.03
2018-03-02T15:34:06.606Z,80.45
2018-03-02T15:36:34.260Z,81.87
2018-03-02T15:39:02.919Z,86.70
2018-03-02T15:41:31.662Z,87.05
2018-03-02T15:43:59.395Z,84.55
2018-03-02T15:46:27.261Z,80.18
2018-03-02T15:48:55.538Z,77.00
2018-03-02T15:51:23.404Z,82.45
2018-03-02T15:53:51.168Z,91.22
2018-03-02T15:56:18.928Z,81.43
2018-03-02T15:58:46.838Z,78.20
2018-03-02T16:01:14.665Z,86.30
2018-03-02T16:03:42.430Z,80.90
2018-03-02T16:06:10.808Z,81.35
2018-03-02T16:08:38.776Z,79.47
2018-03-02T16:11:06.642Z,79.62
2018-03-02T16:13:34.876Z,72.75
2018-03-02T16:16:02.785Z,73.65
2018-03-02T16:18:31.896Z,69.72
2018-03-02T16:21:00.568Z,86.80
2018-03-02T16:23:28.611Z,86.18
2018-03-02T16:25:56.504Z,88.05
2018-03-02T16:28:24.477Z,75.22
2018-03-02T16:30:52.338Z,92.72
2018-03-02T16:33:20.998Z,87.88
2018-03-02T16:35:48.788Z,80.62
2018-03-02T16:38:16.855Z,84.55
2018-03-02T16:40:44.628Z,86.95
2018-03-02T16:43:12.389Z,85.22
2018-03-02T16:45:40.644Z,86.80
2018-03-02T16:48:08.488Z,90.25
2018-03-02T16:50:36.192Z,97.53
2018-03-02T16:53:04.058Z,77.40
2018-03-02T16:55:32.452Z,80.57
2018-03-02T16:58:00.509Z,85.43
2018-03-02T17:00:28.482Z,71.75
2018-03-02T17:02:56.384Z,98.32
2018-03-02T17:05:24.415Z,79.62
2018-03-02T17:07:52.366Z,85.10
2018-03-02T17:10:20.250Z,90.50
2018-03-02T17:12:47.914Z,95.28
2018-03-02T17:15:15.880Z,76.72
2018-03-02T17:17:45.082Z,96.55
2018-03-02T17:20:13.055Z,96.90
2018-03-02T17:22:40.923Z,91.75
2018-03-02T17:25:08.785Z,74.62
2018-03-02T17:27:36.646Z,82.15
2018-03-02T17:30:04.411Z,100.22
2018-03-02T17:32:32.463Z,83.25
2018-03-02T17:35:00.146Z,89.37
2018-03-02T17:37:28.027Z,91.10
2018-03-02T17:39:55.756Z,88.07
2018-03-02T17:42:23.644Z,83.68
2018-03-02T17:44:51.610Z,86.72
2018-03-02T17:47:19.886Z,88.45
2018-03-02T17:49:49.706Z,93.07
2018-03-02T17:52:18.479Z,77.80
2018-03-02T17:54:47.172Z,99.07
2018-03-02T17:57:15.141Z,85.75
2018-03-02T17:59:43.008Z,100.62
2018-03-02T18:02:11.365Z,85.65
2018-03-02T18:04:39.251Z,94.57
2018-03-02T18:07:07.118Z,94.13
2018-03-02T18:09:35.191Z,103.65
2018-03-02T18:12:03.159Z,78.37
2018-03-02T18:14:31.025Z,95.07
2018-03-02T18:16:58.955Z,97.65
2018-03-02T18:19:26.760Z,105.87
2018-03-02T18:21:54.957Z,78.90
2018-03-02T18:24:23.688Z,92.45
2018-03-02T18:26:51.791Z,81.60
2018-03-02T18:29:19.688Z,104.65
2018-03-02T18:31:47.626Z,88.28
2018-03-02T18:34:16.336Z,98.12
2018-03-02T18:36:44.313Z,90.62
2018-03-02T18:39:12.148Z,90.10
2018-03-02T18:41:40.218Z,94.22
2018-03-02T18:44:08.085Z,74.97
2018-03-02T18:46:36.053Z,95.93
2018-03-02T18:49:04.027Z,85.80
2018-03-02T18:51:31.865Z,91.95
2018-03-02T18:54:00.472Z,89.30
2018-03-02T18:56:28.340Z,84.47
2018-03-02T18:58:56.119Z,91.15
2018-03-02T19:01:24.072Z,89.35
2018-03-02T19:03:52.044Z,95.85
2018-03-02T19:06:20.113Z,97.30
2018-03-02T19:08:48.348Z,102.50
2018-03-02T19:11:17.380Z,98.37
2018-03-02T19:13:45.355Z,107.80
2018-03-02T19:16:13.177Z,99.80
2018-03-02T19:18:41.697Z,101.55
2018-03-02T19:21:09.973Z,116.75
2018-03-02T19:23:37.942Z,107.95
2018-03-02T19:26:05.893Z,116.62
2018-03-02T19:28:33.986Z,109.10
2018-03-02T19:31:02.550Z,98.35
2018-03-02T19:33:30.433Z,106.28
2018-03-02T19:35:58.503Z,102.53
2018-03-02T19:38:26.644Z,105.03
2018-03-02T19:40:54.544Z,111.12
2018-03-02T19:43:22.717Z,116.78
2018-03-02T19:45:50.686Z,105.63
2018-03-02T19:48:18.657Z,110.30
2018-03-02T19:50:46.682Z,109.70
2018-03-02T19:53:14.574Z,108.63
2018-03-02T19:55:42.664Z,97.65
2018-03-02T19:58:11.248Z,115.10
2018-03-02T20:00:39.217Z,111.22
2018-03-02T20:03:07.184Z,105.40
2018-03-02T20:05:35.215Z,104.50
2018-03-02T20:08:03.056Z,121.03
2018-03-02T20:10:31.768Z,120.93
2018-03-02T20:12:59.675Z,125.28
2018-03-02T20:15:28.451Z,113.93
2018-03-02T20:17:56.331Z,121.10
2018-03-02T20:20:24.258Z,139.98
2018-03-02T20:22:52.191Z,121.18
2018-03-02T20:25:20.032Z,130.75
2018-03-02T20:27:48.419Z,129.02
2018-03-02T20:30:16.349Z,121.37
2018-03-02T20:32:44.263Z,103.18
2018-03-02T20:35:12.189Z,104.80
2018-03-02T20:37:40.291Z,117.50
2018-03-02T20:40:09.176Z,122.70
2018-03-02T20:42:37.031Z,120.03
2018-03-02T20:45:05.544Z,117.13
2018-03-02T20:47:34.413Z,123.57
2018-03-02T20:50:02.283Z,127.75
2018-03-02T20:52:30.321Z,127.70
2018-03-02T20:54:58.322Z,116.03
2018-03-02T20:57:26.189Z,131.90
2018-03-02T20:59:54.749Z,121.82
2018-03-02T21:02:22.637Z,127.70
2018-03-02T21:04:50.606Z,144.10
2018-03-02T21:07:18.575Z,131.70
2018-03-02T21:09:46.862Z,121.22
2018-03-02T21:12:14.729Z,137.15
2018-03-02T21:14:42.583Z,127.28
2018-03-02T21:17:10.554Z,132.43
2018-03-02T21:19:38.420Z,134.50
2018-03-02T21:22:06.388Z,121.25
2018-03-02T21:24:34.767Z,147.27
2018-03-02T21:27:03.043Z,145.02
2018-03-02T21:29:30.914Z,116.60
2018-03-02T21:31:59.594Z,139.90
2018-03-02T21:34:27.801Z,147.25
2018-03-02T21:36:55.650Z,139.20
2018-03-02T21:39:24.014Z,132.55
2018-03-02T21:41:51.982Z,134.57
2018-03-02T21:44:19.849Z,142.32
2018-03-02T21:46:47.587Z,144.20
2018-03-02T21:49:15.403Z,147.55
2018-03-02T21:51:43.156Z,146.93
2018-03-02T21:54:11.058Z,140.12
2018-03-02T21:56:39.029Z,167.90
2018-03-02T21:59:07.053Z,162.52
2018-03-02T22:01:34.915Z,150.70
2018-03-02T22:04:02.783Z,163.12
2018-03-02T22:06:30.558Z,193.45
2018-03-02T22:08:58.346Z,154.87
2018-03-02T22:11:26.576Z,143.80
2018-03-02T22:13:54.247Z,161.68
2018-03-02T22:16:22.122Z,163.35
2018-03-02T22:18:49.797Z,158.63
2018-03-02T22:21:17.372Z,144.52
2018-03-02T22:23:45.297Z,129.40
2018-03-02T22:26:12.971Z,174.82
2018-03-02T22:28:40.506Z,179.93
2018-03-02T22:31:08.135Z,162.85
2018-03-02T22:33:35.901Z,153.90
2018-03-02T22:36:03.714Z,137.95
2018-03-02T22:38:31.379Z,151.05
2018-03-02T22:40:59.245Z,170.27
2018-03-02T22:43:27.124Z,155.45
2018-03-02T22:45:54.771Z,152.57
2018-03-02T22:48:22.534Z,162.00
2018-03-02T22:50:50.166Z,157.93
2018-03-02T22:53:17.812Z,153.55
2018-03-02T22:55:45.520Z,156.12
2018-03-02T22:58:13.386Z,142.60
2018-03-02T23:00:41.686Z,152.20
2018-03-02T23:03:09.410Z,164.02
2018-03-02T23:05:37.014Z,161.35
2018-03-02T23:08:04.808Z,157.27
2018-03-02T23:10:32.517Z,154.90
2018-03-02T23:13:00.474Z,179.20
2018-03-02T23:15:28.307Z,232.50
2018-03-02T23:17:56.707Z,214.38
2018-03-02T23:20:24.306Z,158.18
2018-03-02T23:22:52.686Z,172.13
2018-03-02T23:25:21.510Z,152.38
2018-03-02T23:27:49.414Z,168.23
2018-03-02T23:30:17.188Z,157.73
2018-03-02T23:32:44.962Z,167.27
2018-03-02T23:35:12.499Z,170.38
2018-03-02T23:37:40.455Z,160.85
2018-03-02T23:40:08.144Z,156.52
2018-03-02T23:42:35.671Z,149.45
2018-03-02T23:45:03.463Z,153.80
2018-03-02T23:47:30.998Z,179.93
2018-03-02T23:49:58.561Z,173.32
2018-03-02T23:52:28.806Z,163.35
2018-03-02T23:54:56.390Z,164.30
2018-03-02T23:57:23.982Z,155.68
2018-03-02T23:59:52.235Z,150.50
